Terminal Aerodrome Forecast
Issued by NWS

Home | Current Version | Previous Version | Text Only | Print | Product List | Glossary On
Versions: 1 2 3 4 5 6 7 8 9 10 11 12 13 14 15 16 17 18
062
FTUS43 KSGF 301137 CCA
TAFJLN
TAF COR
KJLN 301137Z 3012/0112 20008KT P6SM BKN008 OVC015
     FM301400 22012KT P6SM SCT010 BKN015
     FM301500 24012G17KT P6SM SCT025
     FM301900 24013G19KT P6SM SCT045
     FM010000 27005KT P6SM FEW250=

USA.gov is the U.S. government's official web portal to all federal, state and local government web resources and services.